»·PEaware :: N521CE KAPA-KCOS

N521CE :: KAPA-KCOS

FLIGHT INFORMATION

Flight Status: Arrived
Operator: Privately registered:
United States
More flights under this callsign
Pilot: Conor D. (31229)
Aircraft: CESSNA 152 AEROBAT
(C152)
More flights by this aircraft type
Origin: KAPA Centennial
United States
Destination: KCOS City Of Colorado Springs Mun
United States
More flights between these airports :: More routes between these airports
Route: +
File this flight plan on PilotEdge
Remarks:
Altitude:
(Current/Filed)
8,500ft
Speed:
(Current/Filed)
0kts
Departed: 24-Oct-20 03:07 PM
Arrived: 24-Oct-20 03:44 PM
Distance/Time
Traveled:
46nm/0:36
Distance/Time
To Go:
Arrived

Flight Plot

Page will automatically refresh every two minutes.

Flight plan parsing failed; only flown route is shown


Map Options




Map Legend


Flown Route
Filed Route
Departure Airport
Arrival Airport
Navaid (VOR, NDB)
Fix

Horizontal Profiles

Position Reports

Time Latitude Longitude Heading Altitude Ground
Speed
24-Oct-20 14:55 39.575861 -104.848609 342 5822ft 0kts
24-Oct-20 14:56 39.575861 -104.848609 342 5822ft 0kts
24-Oct-20 14:57 39.575861 -104.848609 342 5822ft 0kts
24-Oct-20 14:58 39.577381 -104.849596 248 5817ft 12kts
24-Oct-20 14:59 39.573082 -104.849556 178 5837ft 18kts
24-Oct-20 15:00 39.566829 -104.849287 178 5850ft 26kts
24-Oct-20 15:01 39.559588 -104.848933 178 5881ft 24kts
24-Oct-20 15:02 39.556828 -104.849098 266 5890ft 0kts
24-Oct-20 15:03 39.556828 -104.849098 266 5890ft 0kts
24-Oct-20 15:04 39.556828 -104.849098 266 5890ft 0kts
24-Oct-20 15:05 39.558487 -104.850306 358 5887ft 36kts
24-Oct-20 15:06 39.578939 -104.849450 21 6074ft 86kts
24-Oct-20 15:07 39.568828 -104.836049 176 6488ft 79kts
24-Oct-20 15:08 39.546400 -104.832622 170 6874ft 82kts
24-Oct-20 15:09 39.523041 -104.826380 170 6967ft 86kts
24-Oct-20 15:10 39.500893 -104.819694 168 6943ft 89kts
24-Oct-20 15:11 39.476871 -104.812467 169 6994ft 91kts
24-Oct-20 15:12 39.452032 -104.806741 171 7053ft 90kts
24-Oct-20 15:13 39.427139 -104.801425 171 7101ft 91kts
24-Oct-20 15:14 39.402119 -104.794872 170 7140ft 91kts
24-Oct-20 15:15 39.376810 -104.789228 172 7127ft 92kts
24-Oct-20 15:16 39.351473 -104.782942 169 7145ft 92kts
24-Oct-20 15:17 39.326280 -104.775551 169 7174ft 92kts
24-Oct-20 15:18 39.300911 -104.768715 169 7380ft 90kts
24-Oct-20 15:19 39.278791 -104.762866 177 7844ft 78kts
24-Oct-20 15:20 39.256005 -104.758353 168 8044ft 90kts
24-Oct-20 15:21 39.231590 -104.750704 166 8042ft 90kts
24-Oct-20 15:23 39.206593 -104.749865 182 8036ft 89kts
24-Oct-20 15:24 39.181541 -104.748953 172 8029ft 90kts
24-Oct-20 15:25 39.157019 -104.745048 187 8030ft 89kts
24-Oct-20 15:26 39.132014 -104.746872 183 8028ft 89kts
24-Oct-20 15:27 39.106997 -104.747220 179 8025ft 89kts
24-Oct-20 15:28 39.082083 -104.748556 186 8025ft 89kts
24-Oct-20 15:29 39.057492 -104.752571 188 8135ft 88kts
24-Oct-20 15:30 39.032962 -104.755245 181 8392ft 89kts
24-Oct-20 15:31 39.006852 -104.753415 172 8355ft 94kts
24-Oct-20 15:32 38.980943 -104.746137 164 8329ft 95kts
24-Oct-20 15:33 38.955230 -104.738050 178 8311ft 95kts
24-Oct-20 15:34 38.928962 -104.739875 187 8261ft 93kts
24-Oct-20 15:35 38.903895 -104.744296 191 7983ft 90kts
24-Oct-20 15:36 38.878591 -104.745257 178 7717ft 90kts
24-Oct-20 15:37 38.853147 -104.744981 180 7375ft 91kts
24-Oct-20 15:37 38.832046 -104.743995 178 7099ft 91kts
24-Oct-20 15:39 38.803183 -104.741914 178 6713ft 88kts
24-Oct-20 15:39 38.782759 -104.740821 177 6485ft 87kts
24-Oct-20 15:41 38.765131 -104.722714 67 6423ft 78kts
24-Oct-20 15:41 38.780669 -104.716033 357 6190ft 74kts
24-Oct-20 15:42 38.798447 -104.715959 359 6065ft 45kts
24-Oct-20 15:43 38.803651 -104.718380 268 6087ft 13kts
24-Oct-20 15:44 38.806439 -104.719652 326 6095ft 12kts
24-Oct-20 15:45 38.807518 -104.720227 267 6098ft 0kts

Navigation Log

Ident Type
Flight plan parsing failed, navigation log unavailable